Time;durP1;ratioP1;P1;durP2;ratioP2;P2;SDS_P1;SDS_P2;PMS_P1;PMS_P2;Temp;Humidity;BMP_temperature;BMP_pressure;BME280_temperature;BME280_humidity;BME280_pressure;Samples;Min_cycle;Max_cycle;Signal;HPM_P1;HPM_P2
2023/09/19 00:00:56;;;;;;;3.17;1.20;;;;;;;10.18;100.00;98676.69;5068262;28;20144;-65
2023/09/19 00:03:24;;;;;;;1.63;0.90;;;;;;;10.13;100.00;98670.09;5063099;28;20394;-65
2023/09/19 00:05:51;;;;;;;2.75;1.02;;;;;;;10.13;100.00;98675.31;5068789;28;20055;-65
2023/09/19 00:08:22;;;;;;;2.95;1.00;;;;;;;10.19;100.00;98674.91;5071786;28;20056;-65
2023/09/19 00:10:48;;;;;;;6.43;1.38;;;;;;;10.04;100.00;98659.34;5072139;28;20044;-65
2023/09/19 00:13:15;;;;;;;3.33;1.10;;;;;;;10.22;100.00;98648.56;5072155;28;20048;-65
2023/09/19 00:15:50;;;;;;;6.45;1.65;;;;;;;10.36;100.00;98664.16;5072693;28;20136;-65
2023/09/19 00:18:20;;;;;;;7.45;1.45;;;;;;;10.18;100.00;98662.75;5070624;28;20160;-65
2023/09/19 00:20:49;;;;;;;3.83;1.20;;;;;;;10.21;100.00;98657.34;5072107;28;20048;-64
2023/09/19 00:23:16;;;;;;;2.47;1.08;;;;;;;10.25;100.00;98645.69;5072754;28;20421;-65
2023/09/19 00:25:43;;;;;;;6.63;1.40;;;;;;;10.24;100.00;98660.56;5072881;28;20082;-65
2023/09/19 00:28:10;;;;;;;4.32;1.10;;;;;;;10.13;100.00;98652.63;5072860;28;20048;-65
2023/09/19 00:30:42;;;;;;;2.97;1.00;;;;;;;10.12;100.00;98652.75;5062842;28;20048;-65
2023/09/19 00:33:16;;;;;;;3.45;1.10;;;;;;;9.97;100.00;98652.84;5063595;28;20044;-65
2023/09/19 00:35:57;;;;;;;4.95;1.33;;;;;;;10.11;100.00;98651.91;5073523;28;20401;-64
2023/09/19 00:38:27;;;;;;;4.15;1.25;;;;;;;10.05;100.00;98652.31;5073187;28;20504;-65
2023/09/19 00:40:54;;;;;;;3.92;1.55;;;;;;;10.03;100.00;98647.19;5071973;28;20064;-65
2023/09/19 00:43:24;;;;;;;4.07;1.20;;;;;;;9.73;100.00;98617.94;5069440;28;20053;-65
2023/09/19 00:45:53;;;;;;;3.78;1.10;;;;;;;10.04;100.00;98658.50;5072169;28;20060;-65
2023/09/19 00:48:27;;;;;;;3.20;1.20;;;;;;;10.13;100.00;98643.94;5057545;28;20053;-65
2023/09/19 00:50:56;;;;;;;4.32;1.40;;;;;;;10.08;100.00;98639.88;5072858;28;20056;-65
2023/09/19 00:53:30;;;;;;;2.40;1.00;;;;;;;10.08;100.00;98647.72;5070722;28;20071;-65
2023/09/19 00:55:57;;;;;;;5.82;1.23;;;;;;;10.02;100.00;98629.84;5072216;28;20048;-65
2023/09/19 00:58:24;;;;;;;5.38;1.30;;;;;;;10.13;100.00;98636.94;5072288;28;20056;-65
2023/09/19 01:00:51;;;;;;;4.03;1.35;;;;;;;10.08;100.00;98650.31;5058204;28;20048;-65
2023/09/19 01:03:18;;;;;;;3.72;1.08;;;;;;;10.12;100.00;98650.13;5069697;28;20449;-65
2023/09/19 01:05:45;;;;;;;3.33;1.15;;;;;;;10.04;100.00;98648.06;5071617;28;20056;-65
2023/09/19 01:08:12;;;;;;;2.58;1.10;;;;;;;10.03;100.00;98652.41;5071224;28;20127;-65
2023/09/19 01:10:50;;;;;;;4.00;1.20;;;;;;;9.92;100.00;98657.56;5071923;28;20402;-65
2023/09/19 01:13:42;;;;;;;3.17;1.00;;;;;;;9.96;100.00;98661.63;5071896;28;20075;-65
2023/09/19 01:16:33;;;;;;;4.38;1.20;;;;;;;10.08;100.00;98655.56;5053293;28;20053;-65
2023/09/19 01:19:53;;;;;;;5.13;1.45;;;;;;;9.95;100.00;98654.75;5072292;28;20055;-65
2023/09/19 01:22:28;;;;;;;2.97;1.15;;;;;;;10.00;100.00;98642.16;5010038;28;20064;-65
2023/09/19 01:25:33;;;;;;;3.22;1.10;;;;;;;9.93;100.00;98650.53;5068996;28;20052;-65
2023/09/19 01:28:26;;;;;;;7.50;1.23;;;;;;;9.68;100.00;98640.00;5036520;28;20048;-65
2023/09/19 01:31:00;;;;;;;4.72;1.13;;;;;;;9.80;100.00;98646.16;5071254;28;20065;-65
2023/09/19 01:33:27;;;;;;;3.15;1.05;;;;;;;9.77;100.00;98635.06;5070519;28;20572;-65
2023/09/19 01:35:57;;;;;;;3.63;1.10;;;;;;;9.72;100.00;98635.41;5072045;28;20075;-65
2023/09/19 01:38:24;;;;;;;5.25;1.27;;;;;;;9.79;100.00;98641.88;5071468;28;20663;-65
2023/09/19 01:41:04;;;;;;;3.17;1.05;;;;;;;9.84;100.00;98652.00;5065476;28;20494;-65
2023/09/19 01:43:41;;;;;;;3.90;1.13;;;;;;;9.87;100.00;98649.19;5058101;28;20058;-65
2023/09/19 01:46:24;;;;;;;3.85;1.40;;;;;;;9.96;100.00;98652.97;5069911;28;20065;-65
2023/09/19 01:49:02;;;;;;;3.35;1.10;;;;;;;9.99;100.00;98647.53;5070755;28;20053;-65
2023/09/19 01:51:51;;;;;;;4.45;1.30;;;;;;;9.73;100.00;98644.88;5070672;28;20056;-65
2023/09/19 01:54:26;;;;;;;3.67;1.02;;;;;;;9.67;100.00;98643.53;5070773;28;20052;-65
2023/09/19 01:57:14;;;;;;;3.17;1.00;;;;;;;9.80;100.00;98633.09;5070565;28;20045;-65
2023/09/19 02:00:06;;;;;;;3.15;1.00;;;;;;;9.82;100.00;98636.41;5071752;28;20049;-65
2023/09/19 02:02:38;;;;;;;6.65;1.30;;;;;;;9.43;100.00;98598.16;5066766;28;20057;-64
2023/09/19 02:05:06;;;;;;;2.13;1.00;;;;;;;9.69;100.00;98633.81;5070962;28;20048;-65
2023/09/19 02:07:37;;;;;;;5.50;1.13;;;;;;;9.73;100.00;98618.75;5070678;28;20510;-65
2023/09/19 02:10:12;;;;;;;2.80;1.05;;;;;;;9.64;100.00;98620.22;5071442;28;20340;-64
2023/09/19 02:12:38;;;;;;;2.65;0.93;;;;;;;9.44;100.00;98621.56;5070427;28;20087;-65
2023/09/19 02:15:06;;;;;;;4.28;1.17;;;;;;;9.48;100.00;98612.56;5070778;28;20051;-65
2023/09/19 02:17:33;;;;;;;4.78;1.27;;;;;;;9.46;100.00;98614.47;5075022;28;20744;-65
2023/09/19 02:20:00;;;;;;;2.05;1.00;;;;;;;9.55;100.00;98620.84;5071399;28;20479;-65
2023/09/19 02:22:27;;;;;;;3.65;1.00;;;;;;;9.61;100.00;98623.03;5070570;28;20052;-66
2023/09/19 02:24:54;;;;;;;1.33;0.88;;;;;;;9.64;100.00;98607.16;5070558;28;20040;-65
2023/09/19 02:27:21;;;;;;;4.93;1.30;;;;;;;9.62;100.00;98610.81;5063265;28;20048;-65
2023/09/19 02:29:49;;;;;;;2.50;1.00;;;;;;;9.67;100.00;98606.13;5070383;28;20048;-66
2023/09/19 02:32:18;;;;;;;3.30;1.10;;;;;;;9.44;100.00;98602.44;5069492;28;20417;-65
2023/09/19 02:34:45;;;;;;;2.22;1.10;;;;;;;9.38;100.00;98603.66;5070335;28;20473;-65
2023/09/19 02:37:13;;;;;;;3.75;1.10;;;;;;;9.53;100.00;98606.22;5069935;28;20048;-65
2023/09/19 02:39:40;;;;;;;3.58;1.05;;;;;;;9.47;100.00;98591.78;5070164;28;20044;-65
2023/09/19 02:42:06;;;;;;;3.40;1.10;;;;;;;9.45;100.00;98584.03;5069800;28;20045;-65
2023/09/19 02:44:33;;;;;;;3.28;1.00;;;;;;;9.52;100.00;98586.25;5070140;28;20049;-66
2023/09/19 02:47:00;;;;;;;2.55;1.00;;;;;;;9.51;100.00;98595.88;5069719;28;20048;-65
2023/09/19 02:49:27;;;;;;;4.10;1.48;;;;;;;9.42;100.00;98579.03;5054364;28;20564;-66
2023/09/19 02:51:54;;;;;;;2.00;1.00;;;;;;;9.34;100.00;98573.47;5056977;28;20135;-66
2023/09/19 02:54:21;;;;;;;4.60;1.27;;;;;;;9.39;100.00;98579.25;5060489;28;20432;-65
2023/09/19 02:56:49;;;;;;;2.28;1.02;;;;;;;9.47;100.00;98587.41;5063436;28;20414;-66
2023/09/19 02:59:16;;;;;;;3.03;1.10;;;;;;;9.44;100.00;98582.38;5069222;28;20060;-65
2023/09/19 03:01:47;;;;;;;1.73;0.88;;;;;;;9.37;100.00;98583.72;5066208;28;20060;-65
2023/09/19 03:04:19;;;;;;;1.52;1.10;;;;;;;9.36;100.00;98589.06;5061647;28;20083;-65
2023/09/19 03:06:48;;;;;;;3.85;0.90;;;;;;;9.24;100.00;98575.88;5066922;28;20414;-65
2023/09/19 03:09:15;;;;;;;3.17;1.13;;;;;;;9.29;100.00;98586.00;5067183;28;20048;-65
2023/09/19 03:11:44;;;;;;;5.97;1.10;;;;;;;9.20;100.00;98586.63;5060205;28;20144;-65
2023/09/19 03:14:12;;;;;;;2.85;1.02;;;;;;;9.11;100.00;98585.47;5066917;28;20132;-65
2023/09/19 03:16:38;;;;;;;3.67;1.10;;;;;;;9.11;100.00;98567.19;5054602;28;20124;-65
2023/09/19 03:19:05;;;;;;;5.75;1.17;;;;;;;8.98;100.00;98564.56;5068919;28;20131;-65
2023/09/19 03:21:32;;;;;;;4.50;1.23;;;;;;;9.04;100.00;98576.34;5049181;28;20475;-65
2023/09/19 03:23:59;;;;;;;5.15;0.93;;;;;;;9.10;100.00;98571.56;5061578;28;20429;-65
2023/09/19 03:26:26;;;;;;;3.97;1.30;;;;;;;9.02;100.00;98570.41;5068791;28;20056;-65
2023/09/19 03:28:53;;;;;;;2.33;1.00;;;;;;;8.88;100.00;98558.25;5058711;28;20049;-65
2023/09/19 03:31:20;;;;;;;3.33;1.40;;;;;;;9.03;100.00;98551.19;5065083;28;20052;-65
2023/09/19 03:33:47;;;;;;;3.70;1.05;;;;;;;8.99;100.00;98560.97;5067477;28;20144;-65
2023/09/19 03:36:14;;;;;;;3.75;0.98;;;;;;;8.86;100.00;98557.53;5067519;28;20052;-65
2023/09/19 03:38:40;;;;;;;2.90;1.00;;;;;;;8.83;100.00;98542.06;5056690;28;20450;-65
2023/09/19 03:41:07;;;;;;;3.67;1.20;;;;;;;8.86;100.00;98557.53;5069314;28;20047;-65
2023/09/19 03:43:40;;;;;;;3.35;1.10;;;;;;;8.93;100.00;98554.41;5067012;28;20060;-65
2023/09/19 03:46:09;;;;;;;3.03;1.00;;;;;;;8.97;100.00;98554.22;5064999;28;20060;-65
2023/09/19 03:48:35;;;;;;;2.10;1.08;;;;;;;8.88;100.00;98560.88;5055560;28;20076;-65
2023/09/19 03:51:02;;;;;;;6.53;1.00;;;;;;;8.86;100.00;98571.41;5068466;28;20135;-65
2023/09/19 03:53:29;;;;;;;7.43;1.35;;;;;;;8.79;100.00;98566.69;5075161;28;20490;-65
2023/09/19 03:55:57;;;;;;;2.95;1.10;;;;;;;8.84;100.00;98555.00;5068205;28;20489;-65
2023/09/19 03:58:23;;;;;;;2.38;1.02;;;;;;;8.82;100.00;98537.75;5068681;28;20056;-65
2023/09/19 04:00:50;;;;;;;2.15;0.93;;;;;;;8.91;100.00;98545.00;5057908;28;20107;-64
2023/09/19 04:03:20;;;;;;;1.73;0.93;;;;;;;8.87;100.00;98543.53;5066726;28;20418;-64
2023/09/19 04:05:49;;;;;;;2.22;1.00;;;;;;;8.78;100.00;98544.97;5070373;28;20547;-64
2023/09/19 04:08:21;;;;;;;4.50;1.40;;;;;;;8.68;100.00;98551.72;5053944;28;20049;-65
2023/09/19 04:11:03;;;;;;;5.55;2.20;;;;;;;8.70;100.00;98542.84;5065360;28;20101;-65
2023/09/19 04:13:30;;;;;;;2.25;1.00;;;;;;;8.85;100.00;98541.03;5056547;28;20072;-65
2023/09/19 04:15:57;;;;;;;2.67;1.13;;;;;;;8.91;100.00;98539.78;5058883;28;20093;-65
2023/09/19 04:18:23;;;;;;;3.45;1.00;;;;;;;8.85;100.00;98514.09;5068841;28;20405;-65
2023/09/19 04:20:50;;;;;;;5.43;1.10;;;;;;;9.11;100.00;98533.25;5069664;28;20140;-65
2023/09/19 04:23:17;;;;;;;4.32;1.30;;;;;;;9.11;100.00;98517.59;5068894;28;20059;-65
2023/09/19 04:25:44;;;;;;;4.10;1.23;;;;;;;9.10;100.00;98516.75;5067777;28;20056;-65
2023/09/19 04:28:11;;;;;;;7.10;1.40;;;;;;;8.80;100.00;98495.28;5056657;28;20086;-65
2023/09/19 04:30:40;;;;;;;5.80;1.45;;;;;;;8.96;100.00;98516.84;5053339;28;20052;-66
2023/09/19 04:33:07;;;;;;;5.22;1.20;;;;;;;8.95;100.00;98516.94;5052768;28;20045;-66
2023/09/19 04:35:34;;;;;;;6.68;1.50;;;;;;;8.88;100.00;98506.88;5063213;28;20094;-65
2023/09/19 04:38:03;;;;;;;2.78;1.00;;;;;;;8.86;100.00;98507.94;5058013;28;20055;-65
2023/09/19 04:40:29;;;;;;;2.17;1.00;;;;;;;8.99;100.00;98515.78;5057503;28;20166;-66
2023/09/19 04:43:03;;;;;;;4.72;1.38;;;;;;;8.98;100.00;98506.28;5065169;28;20044;-65
2023/09/19 04:45:30;;;;;;;7.68;1.70;;;;;;;9.02;100.00;98484.28;5068072;28;20063;-65
2023/09/19 04:47:57;;;;;;;5.75;1.48;;;;;;;9.24;100.00;98500.16;5068653;28;20052;-65
2023/09/19 04:50:26;;;;;;;7.70;1.60;;;;;;;9.35;100.00;98495.97;5068964;28;20136;-65
2023/09/19 04:52:53;;;;;;;8.00;1.92;;;;;;;9.10;100.00;98485.44;5070715;28;20055;-65
2023/09/19 04:55:20;;;;;;;7.47;2.35;;;;;;;9.32;100.00;98507.47;5072308;28;20533;-66
2023/09/19 04:57:49;;;;;;;4.13;1.25;;;;;;;9.28;100.00;98499.00;5072279;28;20091;-66
2023/09/19 05:00:23;;;;;;;5.82;1.50;;;;;;;9.32;100.00;98492.63;5072297;28;20131;-66
2023/09/19 05:02:57;;;;;;;9.50;1.42;;;;;;;9.41;100.00;98508.63;5071871;28;20068;-65
2023/09/19 05:05:25;;;;;;;12.50;2.40;;;;;;;9.43;100.00;98491.88;5063999;28;20382;-66
2023/09/19 05:07:54;;;;;;;11.23;1.42;;;;;;;9.43;100.00;98485.84;5065968;28;20060;-66
2023/09/19 05:10:21;;;;;;;8.95;1.70;;;;;;;9.64;100.00;98489.56;5071878;28;20048;-65
2023/09/19 05:12:51;;;;;;;8.90;1.67;;;;;;;9.83;100.00;98480.47;5076583;28;20135;-66
2023/09/19 05:15:18;;;;;;;5.57;1.42;;;;;;;9.86;100.00;98462.78;5070993;28;20052;-65
2023/09/19 05:17:54;;;;;;;8.00;1.30;;;;;;;9.94;100.00;98475.28;5071060;28;20066;-65
2023/09/19 05:20:25;;;;;;;4.65;1.30;;;;;;;9.93;100.00;98471.00;5070929;28;20056;-66
2023/09/19 05:23:08;;;;;;;5.40;1.50;;;;;;;9.98;100.00;98468.91;5057170;28;20048;-65
2023/09/19 05:25:37;;;;;;;3.90;1.40;;;;;;;9.98;100.00;98466.28;5066684;28;20064;-66
2023/09/19 05:28:05;;;;;;;13.07;1.95;;;;;;;9.85;100.00;98466.31;5068383;28;20466;-66
2023/09/19 05:30:32;;;;;;;7.85;1.65;;;;;;;9.80;100.00;98472.81;5064083;28;20053;-66
2023/09/19 05:32:59;;;;;;;5.32;1.55;;;;;;;9.75;100.00;98460.06;5056760;28;20047;-66
2023/09/19 05:35:28;;;;;;;9.68;1.60;;;;;;;9.71;100.00;98452.56;5059366;28;20052;-66
2023/09/19 05:37:56;;;;;;;6.97;1.42;;;;;;;9.89;100.00;98473.00;5058954;28;20064;-66
2023/09/19 05:40:24;;;;;;;4.20;1.40;;;;;;;9.96;100.00;98473.41;5063044;28;20048;-65
2023/09/19 05:42:55;;;;;;;9.38;1.55;;;;;;;10.01;100.00;98467.88;5066481;28;20040;-66
2023/09/19 05:45:27;;;;;;;8.18;1.80;;;;;;;10.02;100.00;98464.28;5068785;28;20052;-65
2023/09/19 05:48:04;;;;;;;7.00;2.05;;;;;;;10.08;100.00;98459.47;5082133;28;20063;-66
2023/09/19 05:50:31;;;;;;;5.82;1.50;;;;;;;10.17;100.00;98446.69;5061034;28;20063;-66
2023/09/19 05:52:58;;;;;;;6.78;1.70;;;;;;;10.18;100.00;98450.94;5063341;28;20047;-65
2023/09/19 05:55:25;;;;;;;6.93;1.75;;;;;;;10.07;100.00;98451.72;5068186;28;20048;-66
2023/09/19 05:57:53;;;;;;;6.70;1.60;;;;;;;10.11;100.00;98441.88;5063578;28;20067;-66
2023/09/19 06:00:23;;;;;;;5.00;1.40;;;;;;;10.14;100.00;98439.88;5059673;28;20049;-66
2023/09/19 06:02:57;;;;;;;6.70;2.13;;;;;;;10.30;100.00;98449.22;5062011;28;20127;-66
2023/09/19 06:05:41;;;;;;;5.65;1.30;;;;;;;10.36;100.00;98438.38;5069787;28;20135;-65
2023/09/19 06:08:09;;;;;;;3.92;1.20;;;;;;;10.33;100.00;98442.03;5069749;28;20090;-66
2023/09/19 06:10:36;;;;;;;4.10;1.10;;;;;;;10.29;100.00;98432.72;5053190;28;20136;-66
2023/09/19 06:13:09;;;;;;;4.22;1.00;;;;;;;10.20;100.00;98430.78;5050073;28;20049;-66
2023/09/19 06:15:36;;;;;;;3.03;1.15;;;;;;;10.09;100.00;98444.59;5063158;28;20062;-66
2023/09/19 06:18:04;;;;;;;3.97;1.35;;;;;;;10.15;100.00;98445.97;5066636;28;20409;-66
2023/09/19 06:20:33;;;;;;;2.17;1.02;;;;;;;10.02;100.00;98435.53;5068098;28;20063;-66
2023/09/19 06:23:02;;;;;;;4.45;1.25;;;;;;;10.13;100.00;98434.75;5068212;28;20498;-66
2023/09/19 06:25:29;;;;;;;6.10;1.23;;;;;;;10.22;100.00;98424.47;5061481;28;20053;-66
2023/09/19 06:27:56;;;;;;;2.28;1.00;;;;;;;10.40;100.00;98421.50;5053952;28;20053;-66
2023/09/19 06:30:24;;;;;;;6.60;1.40;;;;;;;10.36;100.00;98406.97;5059009;28;20053;-66
2023/09/19 06:32:59;;;;;;;6.95;1.20;;;;;;;10.50;100.00;98422.47;5061780;28;20082;-66
2023/09/19 06:35:29;;;;;;;8.07;1.42;;;;;;;10.56;100.00;98414.16;5053361;28;20118;-66
2023/09/19 06:37:57;;;;;;;4.45;1.20;;;;;;;10.54;100.00;98402.97;5053237;28;20056;-66
2023/09/19 06:40:25;;;;;;;3.22;1.20;;;;;;;10.61;100.00;98409.41;5069505;28;20056;-65
2023/09/19 06:42:53;;;;;;;4.95;1.17;;;;;;;10.80;100.00;98394.94;5068427;28;20053;-66
2023/09/19 06:45:21;;;;;;;5.65;1.13;;;;;;;10.80;100.00;98387.94;5059863;28;20509;-66
2023/09/19 06:47:50;;;;;;;4.32;1.30;;;;;;;11.06;100.00;98392.13;5067233;28;20059;-66
2023/09/19 06:50:22;;;;;;;3.15;1.10;;;;;;;11.05;100.00;98383.44;5073177;28;20136;-66
2023/09/19 06:52:52;;;;;;;3.88;1.30;;;;;;;11.09;100.00;98389.28;5055989;28;20073;-66
2023/09/19 06:55:20;;;;;;;3.95;1.20;;;;;;;11.09;100.00;98387.47;5054717;28;20136;-65
2023/09/19 06:57:48;;;;;;;6.00;1.30;;;;;;;11.14;100.00;98395.00;5067681;28;20052;-66
2023/09/19 07:00:21;;;;;;;4.40;1.25;;;;;;;11.13;100.00;98390.69;5055253;28;20049;-65
2023/09/19 07:03:03;;;;;;;7.60;3.25;;;;;;;11.09;100.00;98382.25;5056909;28;20041;-66
2023/09/19 07:05:33;;;;;;;4.25;1.92;;;;;;;11.23;100.00;98385.59;5058445;28;20052;-66
2023/09/19 07:08:00;;;;;;;5.97;1.77;;;;;;;11.15;100.00;98378.31;5058559;28;20056;-66
2023/09/19 07:10:28;;;;;;;5.85;1.65;;;;;;;11.20;100.00;98386.66;5065694;28;20468;-66
2023/09/19 07:13:11;;;;;;;5.05;1.30;;;;;;;11.07;100.00;98396.44;5058320;28;20060;-66
2023/09/19 07:15:41;;;;;;;5.80;1.73;;;;;;;11.02;100.00;98392.34;5061693;28;20059;-66
2023/09/19 07:18:10;;;;;;;9.05;2.13;;;;;;;11.01;100.00;98380.22;5064183;28;20084;-66
2023/09/19 07:20:39;;;;;;;6.40;1.70;;;;;;;10.92;100.00;98377.47;5065322;28;20532;-66
2023/09/19 07:23:08;;;;;;;5.70;1.42;;;;;;;10.99;100.00;98378.66;5071272;28;20045;-65
2023/09/19 07:25:35;;;;;;;7.20;1.73;;;;;;;10.87;100.00;98361.28;5050564;28;20052;-65
2023/09/19 07:28:04;;;;;;;8.32;1.85;;;;;;;11.04;100.00;98375.69;5059275;28;20539;-66
2023/09/19 07:30:41;;;;;;;6.95;1.92;;;;;;;10.94;100.00;98372.94;5048308;28;20458;-65
2023/09/19 07:33:14;;;;;;;6.95;1.77;;;;;;;11.11;100.00;98377.72;5053022;28;20566;-66
2023/09/19 07:35:46;;;;;;;5.32;1.30;;;;;;;11.25;100.00;98373.22;5048852;28;20057;-66
2023/09/19 07:38:12;;;;;;;5.40;1.50;;;;;;;11.45;100.00;98371.63;5049453;28;20061;-66
2023/09/19 07:40:39;;;;;;;10.85;2.30;;;;;;;11.31;100.00;98373.53;5055970;28;20049;-66
2023/09/19 07:43:06;;;;;;;4.78;1.42;;;;;;;11.40;100.00;98370.22;5050884;28;20459;-66
2023/09/19 07:45:33;;;;;;;9.95;2.22;;;;;;;11.34;100.00;98378.53;5056058;28;20124;-66
2023/09/19 07:48:03;;;;;;;6.47;1.30;;;;;;;11.15;100.00;98375.69;5051978;28;20494;-66
2023/09/19 07:50:31;;;;;;;6.90;1.33;;;;;;;11.19;100.00;98364.88;5057543;28;20087;-66
2023/09/19 07:52:58;;;;;;;5.20;1.40;;;;;;;11.35;100.00;98372.38;5064670;28;20045;-66
2023/09/19 07:55:25;;;;;;;7.28;1.40;;;;;;;11.20;100.00;98342.94;5054637;28;20053;-66
2023/09/19 07:57:53;;;;;;;7.10;1.77;;;;;;;11.39;100.00;98368.53;5051869;28;20055;-66
2023/09/19 08:00:20;;;;;;;7.57;1.50;;;;;;;11.08;100.00;98348.31;5051834;28;20075;-66
2023/09/19 08:02:47;;;;;;;8.77;2.10;;;;;;;11.13;100.00;98359.28;5068409;28;20175;-66
2023/09/19 08:05:24;;;;;;;4.10;1.23;;;;;;;11.34;100.00;98354.97;5055032;28;20049;-66
2023/09/19 08:07:52;;;;;;;5.32;1.40;;;;;;;11.49;100.00;98365.19;5066959;28;20083;-66
2023/09/19 08:10:19;;;;;;;5.10;1.48;;;;;;;11.57;100.00;98365.44;5063725;28;20135;-66
2023/09/19 08:12:48;;;;;;;6.05;1.58;;;;;;;11.67;100.00;98355.88;5062190;28;20053;-66
2023/09/19 08:15:19;;;;;;;3.78;1.38;;;;;;;11.48;100.00;98345.19;5056417;28;20114;-66
2023/09/19 08:17:50;;;;;;;6.65;1.63;;;;;;;11.68;100.00;98344.41;5063728;28;20047;-66
2023/09/19 08:20:17;;;;;;;7.82;1.60;;;;;;;11.67;100.00;98339.31;5069906;28;20486;-66
2023/09/19 08:22:49;;;;;;;5.05;1.40;;;;;;;11.70;100.00;98333.81;5066192;28;20048;-66
2023/09/19 08:25:17;;;;;;;7.60;1.52;;;;;;;11.48;100.00;98322.44;5058698;28;20059;-66
2023/09/19 08:27:49;;;;;;;6.78;1.50;;;;;;;11.54;100.00;98315.88;5071565;28;20052;-66
2023/09/19 08:30:18;;;;;;;6.15;1.30;;;;;;;11.84;100.00;98325.66;5068376;28;20074;-66
2023/09/19 08:32:45;;;;;;;4.22;1.13;;;;;;;11.88;100.00;98326.25;5072902;28;20056;-66
2023/09/19 08:35:14;;;;;;;7.45;1.48;;;;;;;12.14;100.00;98318.91;5060011;28;20053;-66
2023/09/19 08:37:42;;;;;;;4.55;1.70;;;;;;;12.01;100.00;98324.34;5066865;28;20045;-66
2023/09/19 08:40:09;;;;;;;5.30;1.40;;;;;;;12.10;100.00;98315.72;5062910;28;20110;-66
2023/09/19 08:42:53;;;;;;;6.45;1.55;;;;;;;12.45;100.00;98316.38;5051408;28;20061;-66
2023/09/19 08:45:23;;;;;;;5.82;1.52;;;;;;;12.61;100.00;98308.84;5051927;28;20052;-66
2023/09/19 08:48:02;;;;;;;3.85;1.25;;;;;;;12.60;100.00;98306.34;5055267;28;20445;-66
2023/09/19 08:50:30;;;;;;;3.80;1.17;;;;;;;12.76;100.00;98287.50;5064704;28;20044;-66
2023/09/19 08:53:01;;;;;;;6.50;1.65;;;;;;;12.86;100.00;98289.22;5059371;28;20063;-66
2023/09/19 08:55:29;;;;;;;3.03;1.08;;;;;;;12.72;100.00;98284.31;5065725;28;20099;-66
2023/09/19 08:58:01;;;;;;;3.20;1.10;;;;;;;12.60;100.00;98280.09;5058563;28;20457;-66
2023/09/19 09:00:30;;;;;;;3.83;1.30;;;;;;;12.63;100.00;98292.97;5069093;28;20056;-66
2023/09/19 09:02:58;;;;;;;4.95;1.38;;;;;;;12.77;100.00;98299.69;5071248;28;20486;-66
2023/09/19 09:05:26;;;;;;;2.95;1.10;;;;;;;12.69;100.00;98292.44;5057759;28;20044;-66
2023/09/19 09:07:56;;;;;;;5.60;1.23;;;;;;;12.67;100.00;98287.31;5057565;28;20379;-66
2023/09/19 09:10:23;;;;;;;4.18;1.00;;;;;;;12.83;100.00;98286.84;5065749;28;20044;-66
2023/09/19 09:12:57;;;;;;;4.70;1.10;;;;;;;12.99;100.00;98302.13;5060061;28;20044;-66
2023/09/19 09:15:24;;;;;;;4.88;1.23;;;;;;;13.04;100.00;98289.41;5060368;28;20132;-65
2023/09/19 09:17:55;;;;;;;4.50;1.40;;;;;;;12.94;100.00;98274.59;5063679;28;20455;-66
2023/09/19 09:20:22;;;;;;;5.10;1.55;;;;;;;13.03;100.00;98268.53;5073000;28;20080;-66
2023/09/19 09:22:54;;;;;;;2.83;1.10;;;;;;;12.75;100.00;98264.84;5070796;28;20052;-66
2023/09/19 09:25:25;;;;;;;5.70;1.58;;;;;;;12.84;100.00;98264.06;5060381;28;20144;-67
2023/09/19 09:28:01;;;;;;;5.38;1.45;;;;;;;12.98;100.00;98260.22;5064000;28;20056;-66
2023/09/19 09:30:37;;;;;;;3.50;1.15;;;;;;;13.03;100.00;98251.00;5067311;28;20564;-66
2023/09/19 09:33:11;;;;;;;2.40;0.93;;;;;;;12.80;100.00;98252.13;5068177;28;20048;-66
2023/09/19 09:35:51;;;;;;;4.32;1.13;;;;;;;13.26;100.00;98256.84;5068255;28;20053;-66
2023/09/19 09:38:31;;;;;;;5.15;1.20;;;;;;;12.94;100.00;98254.41;5053676;28;20060;-66
2023/09/19 09:41:05;;;;;;;7.82;1.38;;;;;;;13.15;100.00;98256.13;5060649;28;20367;-65
2023/09/19 09:43:38;;;;;;;2.33;1.10;;;;;;;13.15;100.00;98253.50;5056753;28;20063;-65
2023/09/19 09:51:42;;;;;;;3.85;1.40;;;;;;;13.08;100.00;98226.94;5062067;28;20040;-66
2023/09/19 09:54:17;;;;;;;3.83;1.30;;;;;;;12.88;100.00;98210.31;5071718;28;20048;-66
2023/09/19 09:57:25;;;;;;;4.78;1.20;;;;;;;13.14;100.00;98246.56;5061770;28;20060;-66
2023/09/19 10:00:16;;;;;;;5.45;1.30;;;;;;;13.30;100.00;98252.16;5059804;28;20040;-66
2023/09/19 10:02:46;;;;;;;2.58;1.10;;;;;;;13.33;100.00;98262.41;5064910;28;20055;-66
2023/09/19 10:07:52;;;;;;;4.00;1.10;;;;;;;13.20;100.00;98238.16;5060241;28;20076;-65
2023/09/19 10:13:18;;;;;;;5.40;1.30;;;;;;;13.13;100.00;98250.19;5058661;28;20391;-66
2023/09/19 10:15:52;;;;;;;5.47;1.45;;;;;;;13.06;100.00;98252.50;5051347;28;20560;-66
2023/09/19 10:18:24;;;;;;;3.67;1.20;;;;;;;13.12;100.00;98252.00;5054086;28;20049;-66
2023/09/19 10:20:51;;;;;;;4.07;1.30;;;;;;;13.02;100.00;98248.50;5089755;28;20048;-65
2023/09/19 10:23:23;;;;;;;4.07;1.23;;;;;;;13.11;100.00;98252.94;5061024;28;20044;-66
2023/09/19 10:25:50;;;;;;;2.88;1.20;;;;;;;12.79;100.00;98238.19;5064134;28;20045;-65
2023/09/19 10:28:21;;;;;;;5.45;1.33;;;;;;;12.87;100.00;98251.50;5063908;28;20083;-66
2023/09/19 10:30:51;;;;;;;3.45;1.33;;;;;;;12.93;100.00;98239.63;5057843;28;20049;-65
2023/09/19 10:33:25;;;;;;;4.40;1.42;;;;;;;12.99;100.00;98236.44;5054122;28;20057;-65
2023/09/19 10:35:56;;;;;;;6.07;1.48;;;;;;;12.99;100.00;98236.44;5051336;28;20080;-65
2023/09/19 10:38:25;;;;;;;3.08;1.20;;;;;;;12.81;100.00;98238.06;5062047;28;20060;-66
2023/09/19 10:40:54;;;;;;;3.65;1.17;;;;;;;13.04;100.00;98242.13;5066050;28;20474;-66
2023/09/19 10:43:25;;;;;;;5.50;1.45;;;;;;;12.99;100.00;98228.56;5053736;28;20500;-66
2023/09/19 10:45:56;;;;;;;5.22;1.70;;;;;;;13.09;100.00;98228.59;5060096;28;20048;-66
2023/09/19 10:48:25;;;;;;;4.10;1.27;;;;;;;13.21;100.00;98217.00;5050089;28;20057;-66
2023/09/19 10:51:24;;;;;;;3.38;1.10;;;;;;;13.50;100.00;98228.56;5058679;28;20569;-66
2023/09/19 10:53:59;;;;;;;2.20;0.90;;;;;;;13.69;100.00;98236.44;5047937;28;20346;-66
2023/09/19 10:56:35;;;;;;;4.07;0.90;;;;;;;13.70;100.00;98216.25;5050502;28;20048;-66
2023/09/19 10:59:21;;;;;;;2.63;1.02;;;;;;;13.67;100.00;98220.00;5058035;28;20685;-66
2023/09/19 11:01:56;;;;;;;4.03;1.25;;;;;;;13.79;100.00;98226.75;5063378;28;20139;-66
2023/09/19 11:04:32;;;;;;;5.88;1.25;;;;;;;14.00;100.00;98216.06;5064551;28;20040;-66
2023/09/19 11:07:11;;;;;;;5.88;1.83;;;;;;;14.00;100.00;98226.56;5069633;28;20114;-66
2023/09/19 11:09:57;;;;;;;3.22;1.20;;;;;;;14.00;100.00;98217.88;5059745;28;20541;-66
2023/09/19 11:12:47;;;;;;;1.88;1.00;;;;;;;14.19;100.00;98227.53;5068685;28;20153;-66
2023/09/19 11:15:52;;;;;;;4.68;1.10;;;;;;;14.27;100.00;98221.53;5063605;28;20045;-66
2023/09/19 11:18:40;;;;;;;2.58;1.00;;;;;;;14.29;100.00;98219.59;5068477;28;20139;-66
2023/09/19 11:21:34;;;;;;;4.75;1.00;;;;;;;14.48;100.00;98226.63;5065321;28;20041;-66
2023/09/19 11:24:25;;;;;;;2.90;0.90;;;;;;;14.52;100.00;98238.50;5063054;28;20132;-66
2023/09/19 11:27:09;;;;;;;5.22;1.00;;;;;;;14.35;100.00;98232.19;5061891;28;20048;-66
2023/09/19 11:29:37;;;;;;;3.67;1.00;;;;;;;14.49;100.00;98230.91;5066701;28;20471;-66
2023/09/19 11:32:05;;;;;;;3.15;0.90;;;;;;;14.59;100.00;98227.31;5067877;28;20052;-66
2023/09/19 11:34:44;;;;;;;5.25;1.10;;;;;;;14.64;100.00;98236.56;5068205;28;20072;-66
2023/09/19 11:37:14;;;;;;;2.92;1.00;;;;;;;14.99;100.00;98241.13;5064934;28;20048;-66
2023/09/19 11:40:16;;;;;;;1.88;0.90;;;;;;;14.95;100.00;98234.50;5068799;28;20107;-66
2023/09/19 11:42:53;;;;;;;2.53;1.00;;;;;;;15.16;100.00;98231.59;5070010;28;20048;-66
2023/09/19 11:45:57;;;;;;;3.00;1.20;;;;;;;15.22;100.00;98238.09;5062820;28;20496;-66
2023/09/19 11:48:27;;;;;;;3.05;1.13;;;;;;;15.31;100.00;98239.81;5066377;28;20478;-66
2023/09/19 11:50:54;;;;;;;3.70;1.17;;;;;;;15.11;100.00;98241.75;5068308;28;20135;-66
2023/09/19 11:53:22;;;;;;;3.63;1.23;;;;;;;14.97;100.00;98228.09;5069759;28;20414;-66
2023/09/19 11:55:50;;;;;;;3.13;1.20;;;;;;;14.90;100.00;98229.66;5069468;28;20631;-66
2023/09/19 11:58:19;;;;;;;2.60;1.00;;;;;;;14.79;100.00;98222.78;5069171;28;20102;-66
2023/09/19 12:00:54;;;;;;;2.90;1.00;;;;;;;14.80;100.00;98232.34;5054973;28;20496;-66